Time;durP1;ratioP1;P1;durP2;ratioP2;P2;SDS_P1;SDS_P2;PMS_P1;PMS_P2;Temp;Humidity;BMP_temperature;BMP_pressure;BME280_temperature;BME280_humidity;BME280_pressure;Samples;Min_cycle;Max_cycle;Signal;HPM_P1;HPM_P2
2021/07/03 00:01:16;;;;;;;6.53;5.00;;;14.90;88.20;;;;;;5133713;27;20445;-69
2021/07/03 00:03:44;;;;;;;7.47;5.70;;;14.90;87.60;;;;;;5129085;27;20423;-68
2021/07/03 00:06:11;;;;;;;8.60;5.23;;;14.90;87.60;;;;;;5112957;28;20466;-69
2021/07/03 00:08:38;;;;;;;6.03;4.80;;;14.90;87.30;;;;;;5115502;27;20880;-69
2021/07/03 00:11:08;;;;;;;6.43;5.30;;;14.90;87.10;;;;;;5133661;27;20457;-68
2021/07/03 00:13:35;;;;;;;7.30;5.13;;;14.90;87.00;;;;;;5131382;27;20475;-68
2021/07/03 00:16:05;;;;;;;6.80;5.37;;;14.80;87.10;;;;;;5133614;27;20448;-69
2021/07/03 00:18:33;;;;;;;9.03;5.13;;;14.80;88.00;;;;;;5132153;27;20782;-69
2021/07/03 00:21:00;;;;;;;6.70;6.00;;;14.80;87.80;;;;;;5112891;28;20477;-69
2021/07/03 00:23:27;;;;;;;7.37;4.97;;;14.70;87.90;;;;;;5112936;28;20438;-73
2021/07/03 00:25:54;;;;;;;6.20;5.57;;;14.60;88.40;;;;;;5133031;28;20448;-69
2021/07/03 00:28:21;;;;;;;8.17;5.60;;;14.60;88.70;;;;;;5133332;28;20433;-69
2021/07/03 00:30:48;;;;;;;7.47;4.60;;;14.60;88.40;;;;;;5113892;28;20431;-69
2021/07/03 00:33:16;;;;;;;9.03;5.00;;;14.60;88.10;;;;;;5115602;28;20584;-70
2021/07/03 00:35:44;;;;;;;5.80;5.10;;;14.50;88.20;;;;;;5133306;28;20430;-69
2021/07/03 00:38:11;;;;;;;7.10;5.87;;;14.50;88.10;;;;;;5132861;27;20486;-69
2021/07/03 00:40:38;;;;;;;7.80;5.40;;;14.50;88.80;;;;;;5117080;28;20438;-69
2021/07/03 00:43:05;;;;;;;7.97;6.40;;;14.40;88.80;;;;;;5117054;27;20430;-69
2021/07/03 00:45:32;;;;;;;8.27;6.10;;;14.40;89.10;;;;;;5137543;27;20449;-69
2021/07/03 00:48:01;;;;;;;8.80;6.07;;;14.50;89.30;;;;;;5137362;27;20481;-69
2021/07/03 00:50:29;;;;;;;10.10;5.83;;;14.50;89.20;;;;;;5116703;27;20472;-68
2021/07/03 00:52:56;;;;;;;9.37;6.33;;;14.40;89.00;;;;;;5133278;27;20437;-69
2021/07/03 00:55:24;;;;;;;12.93;6.90;;;14.40;89.30;;;;;;5137139;27;20431;-69
2021/07/03 00:57:51;;;;;;;8.33;5.37;;;14.40;89.20;;;;;;5121531;27;20441;-70
2021/07/03 01:00:19;;;;;;;6.40;5.00;;;14.30;89.30;;;;;;5116601;28;20473;-69
2021/07/03 01:02:46;;;;;;;10.70;6.40;;;14.30;89.40;;;;;;5117482;27;20442;-69
2021/07/03 01:05:14;;;;;;;6.80;5.30;;;14.30;89.50;;;;;;5116593;28;20434;-69
2021/07/03 01:07:42;;;;;;;9.30;5.60;;;14.30;89.80;;;;;;5128825;27;20540;-69
2021/07/03 01:10:20;;;;;;;6.40;5.27;;;14.30;89.50;;;;;;5136720;27;20515;-69
2021/07/03 01:12:47;;;;;;;6.67;4.90;;;14.20;89.50;;;;;;5123507;27;20529;-69
2021/07/03 01:15:15;;;;;;;8.40;5.60;;;14.30;89.70;;;;;;5116250;28;20462;-69
2021/07/03 01:17:42;;;;;;;7.30;5.43;;;14.30;89.50;;;;;;5127814;27;20441;-69
2021/07/03 01:20:10;;;;;;;7.20;5.03;;;14.20;89.40;;;;;;5136882;27;20437;-69
2021/07/03 01:22:39;;;;;;;7.23;5.13;;;14.20;89.00;;;;;;5125090;27;20506;-69
2021/07/03 01:25:07;;;;;;;7.20;4.63;;;14.20;88.90;;;;;;5116163;28;20441;-69
2021/07/03 01:27:34;;;;;;;7.00;5.23;;;14.10;89.20;;;;;;5129733;27;20480;-68
2021/07/03 01:30:02;;;;;;;7.90;5.70;;;14.10;89.10;;;;;;5136644;27;20529;-69
2021/07/03 01:32:30;;;;;;;10.07;5.30;;;14.10;89.90;;;;;;5123691;27;20495;-69
2021/07/03 01:34:57;;;;;;;9.13;6.30;;;14.00;90.20;;;;;;5116119;28;20438;-69
2021/07/03 01:37:24;;;;;;;11.00;6.93;;;13.90;90.20;;;;;;5126881;27;20445;-68
2021/07/03 01:39:53;;;;;;;10.80;5.67;;;13.90;90.40;;;;;;5136778;27;20523;-69
2021/07/03 01:42:20;;;;;;;13.07;7.43;;;13.90;90.40;;;;;;5125647;27;20505;-68
2021/07/03 01:44:49;;;;;;;7.87;6.40;;;13.90;90.10;;;;;;5115703;28;20483;-69
2021/07/03 01:47:16;;;;;;;8.03;5.73;;;13.90;90.10;;;;;;5124495;27;20505;-69
2021/07/03 01:49:45;;;;;;;8.93;5.67;;;13.80;90.20;;;;;;5135262;27;20472;-68
2021/07/03 01:52:18;;;;;;;7.50;5.37;;;13.90;90.40;;;;;;5127777;27;20437;-68
2021/07/03 01:54:45;;;;;;;8.87;5.83;;;13.90;90.50;;;;;;5115624;28;20497;-69
2021/07/03 01:57:14;;;;;;;7.07;5.60;;;13.90;90.40;;;;;;5120669;27;20488;-69
2021/07/03 01:59:44;;;;;;;8.23;5.90;;;13.90;90.20;;;;;;5136099;27;20460;-68
2021/07/03 02:02:10;;;;;;;6.93;5.50;;;13.90;90.30;;;;;;5128874;27;20430;-69
2021/07/03 02:04:37;;;;;;;10.90;5.63;;;13.80;90.10;;;;;;5115404;28;20438;-69
2021/07/03 02:07:05;;;;;;;7.50;6.10;;;13.70;90.20;;;;;;5120286;27;20886;-69
2021/07/03 02:09:32;;;;;;;15.73;6.10;;;13.70;90.40;;;;;;5135939;27;20465;-68
2021/07/03 02:11:59;;;;;;;7.80;5.03;;;13.70;90.40;;;;;;5131288;27;20434;-69
2021/07/03 02:14:28;;;;;;;7.80;5.73;;;13.70;90.40;;;;;;5114995;28;20470;-71
2021/07/03 02:16:55;;;;;;;6.40;5.00;;;13.70;90.30;;;;;;5119332;27;20434;-69
2021/07/03 02:19:22;;;;;;;8.17;5.53;;;13.70;90.30;;;;;;5135841;27;20437;-69
2021/07/03 02:21:49;;;;;;;6.63;5.20;;;13.60;90.20;;;;;;5128480;27;20458;-69
2021/07/03 02:24:16;;;;;;;6.40;5.50;;;13.60;90.00;;;;;;5115043;28;20856;-69
2021/07/03 02:26:43;;;;;;;7.60;5.67;;;13.50;90.10;;;;;;5120136;27;20449;-68
2021/07/03 02:29:10;;;;;;;7.53;5.30;;;13.40;89.90;;;;;;5135428;27;20829;-69
2021/07/03 02:31:38;;;;;;;7.97;5.83;;;13.30;90.30;;;;;;5130978;27;20438;-68
2021/07/03 02:34:05;;;;;;;8.87;6.53;;;13.30;90.50;;;;;;5114840;28;20487;-68
2021/07/03 02:36:32;;;;;;;8.00;5.77;;;13.30;90.60;;;;;;5117230;27;20439;-70
2021/07/03 02:38:59;;;;;;;7.27;5.63;;;13.20;90.50;;;;;;5135433;27;20440;-68
2021/07/03 02:41:28;;;;;;;7.70;6.13;;;13.20;90.20;;;;;;5133235;27;20524;-69
2021/07/03 02:43:58;;;;;;;8.43;6.20;;;13.10;90.50;;;;;;5114868;28;20438;-68
2021/07/03 02:46:25;;;;;;;8.70;6.10;;;13.10;90.70;;;;;;5114953;27;20442;-68
2021/07/03 02:48:55;;;;;;;8.83;6.20;;;13.00;90.90;;;;;;5135227;27;20560;-69
2021/07/03 02:51:27;;;;;;;7.00;5.33;;;13.00;91.20;;;;;;5134979;27;20874;-73
2021/07/03 02:53:57;;;;;;;8.70;6.23;;;13.00;91.00;;;;;;5114791;28;20493;-68
2021/07/03 02:56:24;;;;;;;8.07;6.07;;;13.00;91.10;;;;;;5114511;28;20920;-68
2021/07/03 02:58:51;;;;;;;8.80;6.97;;;13.00;91.30;;;;;;5114607;27;20434;-68
2021/07/03 03:01:18;;;;;;;8.93;7.00;;;12.90;91.50;;;;;;5125699;27;20434;-68
2021/07/03 03:03:45;;;;;;;7.77;6.00;;;12.90;92.00;;;;;;5134834;27;20480;-68
2021/07/03 03:06:20;;;;;;;7.70;6.47;;;13.00;92.00;;;;;;5123730;27;20446;-69
2021/07/03 03:08:47;;;;;;;10.85;6.82;;;13.00;92.00;;;;;;5114266;28;20897;-69
2021/07/03 03:11:14;;;;;;;8.67;6.47;;;13.00;92.40;;;;;;5123646;27;20191;-68
2021/07/03 03:13:41;;;;;;;9.27;6.50;;;13.00;91.80;;;;;;5134442;27;20477;-68
2021/07/03 03:16:08;;;;;;;8.17;5.87;;;13.00;91.90;;;;;;5125261;27;20438;-68
2021/07/03 03:18:35;;;;;;;6.43;5.00;;;13.00;91.80;;;;;;5113953;28;20438;-69
2021/07/03 03:21:02;;;;;;;7.50;5.87;;;13.00;91.60;;;;;;5121028;27;20442;-68
2021/07/03 03:23:30;;;;;;;9.17;7.80;;;13.00;91.30;;;;;;5134381;27;20445;-69
2021/07/03 03:25:57;;;;;;;8.67;6.20;;;12.90;91.20;;;;;;5128060;27;20446;-68
2021/07/03 03:28:24;;;;;;;12.30;6.60;;;12.80;91.30;;;;;;5113798;28;20504;-68
2021/07/03 03:30:51;;;;;;;8.18;6.53;;;12.70;91.80;;;;;;5117840;27;20179;-68
2021/07/03 03:33:18;;;;;;;8.88;5.90;;;12.70;91.90;;;;;;5134333;27;20196;-68
2021/07/03 03:35:45;;;;;;;8.38;5.70;;;12.70;91.90;;;;;;5130727;27;20770;-68
2021/07/03 03:38:12;;;;;;;8.07;4.90;;;12.70;92.00;;;;;;5113682;28;20235;-68
2021/07/03 03:40:42;;;;;;;9.50;6.17;;;12.70;91.80;;;;;;5114796;27;20487;-68
2021/07/03 03:43:09;;;;;;;8.37;5.43;;;12.70;91.90;;;;;;5134234;27;20532;-69
2021/07/03 03:45:37;;;;;;;8.40;5.72;;;12.70;91.90;;;;;;5132574;27;20437;-68
2021/07/03 03:48:06;;;;;;;7.35;6.20;;;12.60;92.10;;;;;;5113496;28;20254;-68
2021/07/03 03:50:33;;;;;;;7.43;5.23;;;12.70;92.20;;;;;;5113278;28;20223;-71
2021/07/03 03:53:00;;;;;;;8.90;5.63;;;12.70;92.40;;;;;;5113426;28;20445;-68
2021/07/03 03:55:27;;;;;;;7.60;5.73;;;12.70;92.40;;;;;;5113249;28;20515;-68
2021/07/03 03:57:57;;;;;;;6.50;5.70;;;12.80;92.30;;;;;;5132295;27;20422;-69
2021/07/03 04:00:24;;;;;;;8.10;6.10;;;12.80;92.10;;;;;;5133719;27;20477;-68
2021/07/03 04:02:51;;;;;;;7.00;5.97;;;12.80;91.90;;;;;;5115247;27;20840;-68
2021/07/03 04:05:18;;;;;;;6.97;5.60;;;12.90;92.10;;;;;;5113223;28;20430;-68
2021/07/03 04:07:46;;;;;;;7.70;4.93;;;13.00;91.90;;;;;;5129958;27;20472;-69
2021/07/03 04:10:15;;;;;;;8.80;6.30;;;12.90;91.80;;;;;;5133708;27;20518;-69
2021/07/03 04:12:43;;;;;;;6.57;5.87;;;13.00;91.90;;;;;;5116636;27;20430;-68
2021/07/03 04:15:13;;;;;;;8.77;5.10;;;13.00;92.00;;;;;;5112931;28;20466;-68
2021/07/03 04:17:40;;;;;;;7.33;5.53;;;13.00;92.10;;;;;;5127990;27;20494;-69
2021/07/03 04:20:09;;;;;;;11.40;7.13;;;13.10;92.10;;;;;;5133720;27;20441;-69
2021/07/03 04:22:36;;;;;;;16.93;9.43;;;13.10;92.30;;;;;;5119413;28;20434;-69
2021/07/03 04:25:11;;;;;;;12.60;9.50;;;13.10;92.30;;;;;;5113155;28;20426;-68
2021/07/03 04:27:44;;;;;;;16.60;6.93;;;13.10;92.40;;;;;;5113984;28;20471;-69
2021/07/03 04:30:15;;;;;;;8.03;5.40;;;13.10;92.30;;;;;;5113035;28;20440;-69
2021/07/03 04:32:42;;;;;;;9.57;6.90;;;13.20;92.20;;;;;;5126239;28;20434;-69
2021/07/03 04:35:12;;;;;;;7.70;5.00;;;13.10;92.20;;;;;;5133616;28;20191;-69
2021/07/03 04:37:39;;;;;;;8.70;5.33;;;13.20;92.60;;;;;;5120626;28;20441;-69
2021/07/03 04:40:08;;;;;;;7.90;5.50;;;13.30;92.80;;;;;;5112993;28;20473;-70
2021/07/03 04:42:36;;;;;;;6.40;5.00;;;13.40;92.40;;;;;;5124313;28;20440;-69
2021/07/03 04:45:03;;;;;;;7.90;5.30;;;13.40;92.50;;;;;;5133376;28;20440;-69
2021/07/03 04:47:35;;;;;;;7.17;5.50;;;13.50;92.50;;;;;;5116721;28;20479;-69
2021/07/03 04:50:02;;;;;;;7.07;5.30;;;13.60;92.60;;;;;;5113090;28;20485;-69
2021/07/03 04:52:30;;;;;;;6.80;5.73;;;13.60;92.40;;;;;;5128052;28;20433;-69
2021/07/03 04:54:58;;;;;;;7.00;5.50;;;13.70;92.20;;;;;;5133517;28;20478;-68
2021/07/03 04:57:25;;;;;;;8.40;5.90;;;13.70;92.20;;;;;;5118879;28;20447;-69
2021/07/03 04:59:52;;;;;;;9.70;5.73;;;13.80;92.40;;;;;;5112935;28;20446;-69
2021/07/03 05:02:19;;;;;;;6.57;5.50;;;13.80;92.30;;;;;;5125210;28;20834;-69
2021/07/03 05:04:47;;;;;;;6.10;5.20;;;13.80;92.50;;;;;;5133344;28;20470;-69
2021/07/03 05:07:14;;;;;;;7.00;5.20;;;13.90;92.30;;;;;;5121025;28;20463;-69
2021/07/03 05:09:41;;;;;;;7.23;5.37;;;13.90;92.30;;;;;;5112744;28;20889;-69
2021/07/03 05:12:09;;;;;;;8.20;5.37;;;13.90;92.10;;;;;;5122493;28;20446;-69
2021/07/03 05:14:35;;;;;;;6.73;5.33;;;14.00;92.10;;;;;;5133018;28;20457;-69
2021/07/03 05:17:03;;;;;;;9.10;6.10;;;14.10;92.20;;;;;;5124079;28;20426;-69
2021/07/03 05:19:30;;;;;;;7.83;5.10;;;14.10;92.10;;;;;;5112526;28;20438;-69
2021/07/03 05:21:58;;;;;;;7.47;6.27;;;14.20;92.20;;;;;;5119804;28;20794;-69
2021/07/03 05:24:25;;;;;;;12.30;8.60;;;14.20;91.80;;;;;;5133781;27;20443;-68
2021/07/03 05:26:52;;;;;;;9.13;7.43;;;14.30;92.10;;;;;;5130327;27;20437;-69
2021/07/03 05:29:20;;;;;;;7.30;6.60;;;14.30;92.10;;;;;;5116042;27;20480;-69
2021/07/03 05:31:47;;;;;;;8.67;6.80;;;14.40;92.30;;;;;;5121064;27;20433;-69
2021/07/03 05:34:14;;;;;;;9.50;6.53;;;14.50;92.40;;;;;;5137022;27;20486;-69
2021/07/03 05:36:44;;;;;;;9.60;5.20;;;14.70;92.60;;;;;;5118733;27;20507;-68
2021/07/03 05:39:12;;;;;;;9.40;5.43;;;14.70;92.30;;;;;;5114644;28;20445;-69
2021/07/03 05:41:42;;;;;;;7.07;5.10;;;14.80;92.00;;;;;;5114550;27;20434;-70
2021/07/03 05:44:09;;;;;;;6.30;4.43;;;14.90;91.80;;;;;;5114644;28;20438;-69
2021/07/03 05:46:37;;;;;;;6.23;4.80;;;15.00;91.90;;;;;;5115523;27;20477;-70
2021/07/03 05:49:04;;;;;;;9.07;5.67;;;15.10;92.10;;;;;;5114299;28;20999;-69
2021/07/03 05:51:33;;;;;;;5.73;5.13;;;15.20;92.10;;;;;;5113955;27;20434;-69
2021/07/03 05:54:00;;;;;;;6.23;4.60;;;15.30;91.90;;;;;;5114525;28;20828;-69
2021/07/03 05:56:29;;;;;;;7.00;5.60;;;15.50;91.70;;;;;;5114494;28;20796;-69
2021/07/03 05:59:01;;;;;;;6.40;4.90;;;15.50;91.40;;;;;;5114513;27;20943;-69
2021/07/03 06:01:30;;;;;;;8.63;5.33;;;15.60;91.30;;;;;;5110296;28;20943;-69
2021/07/03 06:03:57;;;;;;;7.50;5.00;;;15.70;91.40;;;;;;5115931;27;20923;-69
2021/07/03 06:06:25;;;;;;;7.83;4.97;;;15.80;91.30;;;;;;5114170;28;20438;-70
2021/07/03 06:08:52;;;;;;;7.13;5.63;;;16.00;91.10;;;;;;5113720;28;20470;-70
2021/07/03 06:11:19;;;;;;;6.23;5.10;;;16.10;91.30;;;;;;5114012;28;20430;-69
2021/07/03 06:13:48;;;;;;;5.97;4.70;;;16.20;91.00;;;;;;5117424;27;20534;-71
2021/07/03 06:16:16;;;;;;;9.60;5.67;;;16.30;91.20;;;;;;5113887;28;20434;-71
2021/07/03 06:18:43;;;;;;;7.50;5.60;;;16.50;91.50;;;;;;5109974;28;20430;-70
2021/07/03 06:21:09;;;;;;;6.93;5.30;;;16.60;91.90;;;;;;5113794;28;20846;-70
2021/07/03 06:23:36;;;;;;;7.60;5.80;;;16.70;91.50;;;;;;5114926;27;20473;-69
2021/07/03 06:26:05;;;;;;;6.20;5.47;;;16.80;91.10;;;;;;5113534;28;20487;-71
2021/07/03 06:28:33;;;;;;;9.43;6.40;;;16.90;91.10;;;;;;5111490;28;20535;-69
2021/07/03 06:31:02;;;;;;;10.33;5.33;;;17.00;89.60;;;;;;5113655;28;20438;-69
2021/07/03 06:33:31;;;;;;;5.90;4.50;;;17.10;88.30;;;;;;5115459;27;20450;-69
2021/07/03 06:35:58;;;;;;;8.50;5.97;;;17.20;88.60;;;;;;5112935;28;20520;-69
2021/07/03 06:38:25;;;;;;;6.87;4.70;;;17.40;88.90;;;;;;5113644;28;20430;-70
2021/07/03 06:40:52;;;;;;;6.60;5.37;;;17.40;89.10;;;;;;5113516;28;20438;-70
2021/07/03 06:43:23;;;;;;;8.30;5.10;;;17.50;87.80;;;;;;5113242;27;20932;-69
2021/07/03 06:45:50;;;;;;;7.37;5.30;;;17.60;88.40;;;;;;5109120;28;20427;-70
2021/07/03 06:48:18;;;;;;;7.27;5.27;;;17.70;88.50;;;;;;5114032;27;20478;-69
2021/07/03 06:50:45;;;;;;;6.03;5.37;;;17.80;89.00;;;;;;5113124;28;20905;-69
2021/07/03 06:53:12;;;;;;;6.77;5.20;;;17.90;88.80;;;;;;5112958;27;20445;-69
2021/07/03 06:55:39;;;;;;;7.37;5.57;;;18.10;88.90;;;;;;5115756;27;20487;-71
2021/07/03 06:58:07;;;;;;;7.47;5.47;;;18.20;88.00;;;;;;5113089;28;20936;-69
2021/07/03 07:00:36;;;;;;;8.33;6.07;;;18.30;88.00;;;;;;5113157;27;20426;-69
2021/07/03 07:03:03;;;;;;;9.13;6.50;;;18.40;84.00;;;;;;5113020;28;20430;-69
2021/07/03 07:05:31;;;;;;;7.60;6.20;;;18.50;84.80;;;;;;5114143;27;20440;-69
2021/07/03 07:07:58;;;;;;;8.17;6.03;;;18.60;83.20;;;;;;5114863;27;20434;-69
2021/07/03 07:10:27;;;;;;;8.67;5.30;;;18.60;83.40;;;;;;5112824;28;20475;-71
2021/07/03 07:12:54;;;;;;;8.63;5.10;;;18.70;83.60;;;;;;5107974;27;20426;-69
2021/07/03 07:15:21;;;;;;;7.27;4.90;;;18.90;84.10;;;;;;5117402;27;20557;-69
2021/07/03 07:17:48;;;;;;;7.37;5.80;;;19.10;83.90;;;;;;5115405;27;20948;-70
2021/07/03 07:20:15;;;;;;;7.37;5.60;;;19.30;84.90;;;;;;5112566;28;20791;-70
2021/07/03 07:22:43;;;;;;;8.30;5.40;;;19.40;83.40;;;;;;5113104;28;20517;-69
2021/07/03 07:25:11;;;;;;;7.50;5.27;;;19.60;83.00;;;;;;5112729;27;20529;-69
2021/07/03 07:27:38;;;;;;;6.57;5.00;;;19.70;82.70;;;;;;5112990;28;20521;-69
2021/07/03 07:30:07;;;;;;;6.63;4.80;;;19.90;82.10;;;;;;5115515;27;20833;-73
2021/07/03 07:32:34;;;;;;;6.63;5.30;;;20.00;80.50;;;;;;5113022;27;20492;-69
2021/07/03 07:35:00;;;;;;;6.83;5.10;;;20.10;78.70;;;;;;5111872;28;20513;-70
2021/07/03 07:37:28;;;;;;;6.57;4.50;;;20.20;78.60;;;;;;5113971;27;20442;-70
2021/07/03 07:39:56;;;;;;;13.07;4.83;;;20.30;78.70;;;;;;5112673;28;20496;-70
2021/07/03 07:42:23;;;;;;;8.20;5.10;;;20.40;78.60;;;;;;5112341;27;20819;-69
2021/07/03 07:44:50;;;;;;;6.33;4.70;;;20.50;79.30;;;;;;5114311;28;20513;-69
2021/07/03 07:47:17;;;;;;;6.50;4.97;;;20.60;78.10;;;;;;5110326;27;20461;-70
2021/07/03 07:49:50;;;;;;;5.40;4.20;;;20.70;76.60;;;;;;5112629;28;20886;-70
2021/07/03 07:52:17;;;;;;;5.43;4.40;;;20.70;74.10;;;;;;5112083;27;20523;-70
2021/07/03 07:54:44;;;;;;;4.60;3.90;;;20.80;74.20;;;;;;5112591;28;20446;-69
2021/07/03 07:57:12;;;;;;;9.67;5.50;;;20.90;75.30;;;;;;5111411;28;20510;-69
2021/07/03 07:59:39;;;;;;;5.83;4.30;;;21.10;75.40;;;;;;5113016;28;20436;-70
2021/07/03 08:02:08;;;;;;;5.20;4.00;;;21.30;76.20;;;;;;5114801;27;20534;-69
2021/07/03 08:04:35;;;;;;;11.77;4.93;;;21.40;76.50;;;;;;5110942;28;20541;-70
2021/07/03 08:07:02;;;;;;;6.87;4.10;;;21.50;76.50;;;;;;5112203;28;20478;-69
2021/07/03 08:09:29;;;;;;;7.27;4.67;;;21.70;76.20;;;;;;5112002;28;21054;-71
2021/07/03 08:12:01;;;;;;;5.63;4.73;;;21.80;76.40;;;;;;5108279;28;20509;-70
2021/07/03 08:14:29;;;;;;;6.13;5.10;;;21.90;73.50;;;;;;5111338;28;20548;-70
2021/07/03 08:16:56;;;;;;;6.97;4.70;;;22.00;71.30;;;;;;5112144;28;20516;-71
2021/07/03 08:19:23;;;;;;;5.80;4.13;;;22.00;70.50;;;;;;5112021;28;20864;-69
2021/07/03 08:21:50;;;;;;;5.60;4.80;;;22.10;70.90;;;;;;5112150;28;20442;-71
2021/07/03 08:24:17;;;;;;;6.10;4.40;;;22.20;72.40;;;;;;5116009;28;20499;-70
2021/07/03 08:26:44;;;;;;;6.07;5.03;;;22.30;72.70;;;;;;5111561;28;20431;-70
2021/07/03 08:29:16;;;;;;;7.70;4.20;;;22.40;73.30;;;;;;5111643;28;20564;-70
2021/07/03 08:31:44;;;;;;;5.67;4.90;;;22.50;71.60;;;;;;5112417;28;20554;-69
2021/07/03 08:34:11;;;;;;;8.60;4.70;;;22.60;72.10;;;;;;5100003;28;20572;-71
2021/07/03 08:36:38;;;;;;;5.50;3.80;;;22.70;69.40;;;;;;5108326;28;20450;-69
2021/07/03 08:39:07;;;;;;;6.60;4.57;;;22.70;69.20;;;;;;5110533;28;20430;-70
2021/07/03 08:41:38;;;;;;;5.93;4.70;;;22.90;68.70;;;;;;5112857;28;20838;-71
2021/07/03 08:44:11;;;;;;;6.43;4.97;;;22.90;68.00;;;;;;5110708;28;20453;-70
2021/07/03 08:46:38;;;;;;;4.97;4.50;;;23.00;68.30;;;;;;5106125;28;20438;-69
2021/07/03 08:49:06;;;;;;;6.77;4.30;;;23.00;65.40;;;;;;5110337;28;20566;-70
2021/07/03 08:51:38;;;;;;;6.13;4.17;;;23.10;64.40;;;;;;5110484;28;20426;-70
2021/07/03 08:54:09;;;;;;;5.40;4.13;;;23.10;65.00;;;;;;5110071;28;20462;-70
2021/07/03 08:56:36;;;;;;;6.17;4.60;;;23.20;65.40;;;;;;5110615;28;20483;-70
2021/07/03 08:59:03;;;;;;;5.63;4.43;;;23.30;64.20;;;;;;5112218;28;20437;-70
2021/07/03 09:01:32;;;;;;;5.90;3.97;;;23.40;65.60;;;;;;5114273;28;20868;-70
2021/07/03 09:03:58;;;;;;;7.20;5.00;;;23.50;65.00;;;;;;5114548;28;20458;-69
2021/07/03 09:06:34;;;;;;;6.03;4.13;;;23.70;64.80;;;;;;5114593;28;20495;-69
2021/07/03 09:09:01;;;;;;;5.60;4.60;;;23.70;62.20;;;;;;5113764;28;20473;-71
2021/07/03 09:11:30;;;;;;;5.77;4.97;;;23.80;61.60;;;;;;5114380;28;20462;-70
2021/07/03 09:14:00;;;;;;;6.00;3.90;;;23.80;62.20;;;;;;5113898;28;20553;-71
2021/07/03 09:16:31;;;;;;;6.27;4.33;;;24.00;64.10;;;;;;5113674;28;20434;-70
2021/07/03 09:18:58;;;;;;;5.13;4.60;;;24.10;62.30;;;;;;5114138;28;20433;-70
2021/07/03 09:21:25;;;;;;;5.60;4.67;;;24.20;62.80;;;;;;5114296;28;20442;-70
2021/07/03 09:23:54;;;;;;;6.60;4.40;;;24.20;62.60;;;;;;5113962;28;20434;-70
2021/07/03 09:26:21;;;;;;;4.80;3.97;;;24.30;63.30;;;;;;5113736;28;20549;-70
2021/07/03 09:28:49;;;;;;;4.50;3.93;;;24.50;62.90;;;;;;5113732;28;20430;-70
2021/07/03 09:31:18;;;;;;;4.30;3.70;;;24.60;61.10;;;;;;5113547;28;20492;-70
2021/07/03 09:33:47;;;;;;;5.20;3.90;;;24.70;59.30;;;;;;5113178;28;20852;-71
2021/07/03 09:36:22;;;;;;;4.70;3.67;;;24.80;57.00;;;;;;5113469;27;20486;-71
2021/07/03 09:38:58;;;;;;;5.63;3.63;;;24.80;54.70;;;;;;5115311;27;20468;-70
2021/07/03 09:41:28;;;;;;;6.00;4.33;;;24.90;53.00;;;;;;5114377;27;20429;-70
2021/07/03 09:44:00;;;;;;;5.43;3.80;;;24.90;53.40;;;;;;5115434;27;20522;-70
2021/07/03 09:46:31;;;;;;;5.17;3.57;;;24.90;52.80;;;;;;5113214;28;20510;-70
2021/07/03 09:49:00;;;;;;;5.17;3.90;;;25.00;53.10;;;;;;5115038;27;21586;-70
2021/07/03 09:51:31;;;;;;;6.10;3.60;;;25.10;54.00;;;;;;5114712;27;20513;-70
2021/07/03 09:54:00;;;;;;;4.80;3.93;;;25.10;51.50;;;;;;5117293;27;20430;-70
2021/07/03 09:56:28;;;;;;;7.07;4.50;;;25.20;52.60;;;;;;5108530;27;20852;-73
2021/07/03 09:58:55;;;;;;;4.03;2.93;;;25.20;52.80;;;;;;5113708;27;20438;-70
2021/07/03 10:01:23;;;;;;;4.77;3.90;;;25.20;50.30;;;;;;5112159;28;20447;-70
2021/07/03 10:03:50;;;;;;;6.23;5.30;;;25.30;51.30;;;;;;5124171;27;20448;-76
2021/07/03 10:06:22;;;;;;;5.00;3.97;;;25.40;51.40;;;;;;5116608;27;20477;-70
2021/07/03 10:08:55;;;;;;;5.47;4.13;;;25.50;50.90;;;;;;5132801;27;20433;-72
2021/07/03 10:11:26;;;;;;;4.60;3.73;;;25.50;50.70;;;;;;5126588;27;20930;-70
2021/07/03 10:14:05;;;;;;;4.40;3.20;;;25.60;48.10;;;;;;5091254;28;20539;-73
2021/07/03 10:16:33;;;;;;;5.50;4.57;;;25.60;48.90;;;;;;5068804;27;20793;-71
2021/07/03 10:19:10;;;;;;;5.40;3.47;;;25.60;47.00;;;;;;5009824;28;20461;-71
2021/07/03 10:21:38;;;;;;;6.47;3.90;;;25.60;47.90;;;;;;5021626;28;20807;-72
2021/07/03 10:24:16;;;;;;;6.00;2.80;;;25.60;48.60;;;;;;5023240;28;20456;-71
2021/07/03 10:26:46;;;;;;;5.47;3.70;;;25.60;48.60;;;;;;5007020;28;20464;-73
2021/07/03 10:29:18;;;;;;;5.50;3.63;;;25.70;49.90;;;;;;5004504;28;20943;-71
2021/07/03 10:31:46;;;;;;;7.83;4.20;;;25.80;47.90;;;;;;5005772;28;20445;-71
2021/07/03 10:34:13;;;;;;;7.57;3.60;;;25.90;47.70;;;;;;5019987;28;20434;-71
2021/07/03 10:36:41;;;;;;;4.73;3.23;;;25.90;48.80;;;;;;5002432;28;20477;-71
2021/07/03 10:39:08;;;;;;;3.90;3.37;;;25.90;48.20;;;;;;5022801;28;20500;-71
2021/07/03 10:41:36;;;;;;;6.10;4.00;;;26.00;49.40;;;;;;5014239;28;20453;-72
2021/07/03 10:44:09;;;;;;;6.30;4.13;;;26.10;50.10;;;;;;5022543;28;20474;-72
2021/07/03 10:46:37;;;;;;;4.33;3.60;;;26.20;48.90;;;;;;5009526;28;20508;-71
2021/07/03 10:49:06;;;;;;;5.30;3.40;;;26.20;47.70;;;;;;5015829;28;20467;-69
2021/07/03 10:51:37;;;;;;;7.93;4.40;;;26.30;46.50;;;;;;5014819;28;20530;-70
2021/07/03 10:54:13;;;;;;;6.37;3.40;;;26.20;44.70;;;;;;5014766;28;20535;-70
2021/07/03 10:56:45;;;;;;;5.13;4.20;;;26.20;45.40;;;;;;5014607;28;20465;-70
2021/07/03 10:59:15;;;;;;;7.00;3.93;;;26.30;49.40;;;;;;5020304;28;20469;-70
2021/07/03 11:01:43;;;;;;;4.43;3.30;;;26.40;50.20;;;;;;5023121;28;20504;-70
2021/07/03 11:04:18;;;;;;;4.83;3.13;;;26.50;46.90;;;;;;5014547;28;20439;-70
2021/07/03 11:06:47;;;;;;;4.17;2.90;;;26.50;45.50;;;;;;5031051;28;20472;-70
2021/07/03 11:09:29;;;;;;;4.50;3.87;;;26.60;47.20;;;;;;5021486;28;20441;-70
2021/07/03 11:11:59;;;;;;;8.70;3.13;;;26.60;47.30;;;;;;5014468;28;20440;-70
2021/07/03 11:14:34;;;;;;;4.60;3.53;;;26.70;46.60;;;;;;5026372;28;20516;-71
2021/07/03 11:17:03;;;;;;;6.10;3.70;;;26.80;46.00;;;;;;5032886;28;20433;-70
2021/07/03 11:19:30;;;;;;;4.10;3.27;;;26.90;46.40;;;;;;5032979;28;20502;-70
2021/07/03 11:22:07;;;;;;;4.77;2.93;;;26.90;45.90;;;;;;5033976;28;20496;-70
2021/07/03 11:24:49;;;;;;;4.10;3.23;;;27.00;46.00;;;;;;5020249;28;20971;-70
2021/07/03 11:27:29;;;;;;;4.90;3.20;;;27.10;44.50;;;;;;5014110;28;20434;-70
2021/07/03 11:29:59;;;;;;;3.67;2.70;;;27.10;43.20;;;;;;5014865;28;20486;-71
2021/07/03 11:32:26;;;;;;;5.53;3.20;;;27.20;44.60;;;;;;5014060;28;20470;-71
2021/07/03 11:34:56;;;;;;;3.37;2.73;;;27.20;43.80;;;;;;5013389;28;20486;-70
2021/07/03 11:37:34;;;;;;;5.13;3.53;;;27.20;42.20;;;;;;5014040;28;20498;-70
2021/07/03 11:40:04;;;;;;;6.20;3.27;;;27.30;41.80;;;;;;5031303;28;20519;-70
2021/07/03 11:42:32;;;;;;;3.40;2.80;;;27.30;41.90;;;;;;5033711;28;20516;-70
2021/07/03 11:45:03;;;;;;;5.60;3.30;;;27.40;41.70;;;;;;5033454;28;20964;-70
2021/07/03 11:47:37;;;;;;;4.03;3.10;;;27.40;42.20;;;;;;5033699;28;20470;-70
2021/07/03 11:50:06;;;;;;;3.57;3.27;;;27.50;43.00;;;;;;5031736;28;20560;-70
2021/07/03 11:52:42;;;;;;;4.13;2.93;;;27.50;41.90;;;;;;5031624;28;20461;-70
2021/07/03 11:55:11;;;;;;;4.43;3.60;;;27.60;40.90;;;;;;5019034;28;20498;-70
2021/07/03 11:57:39;;;;;;;4.07;3.30;;;27.60;40.10;;;;;;5012075;28;20525;-70
2021/07/03 12:00:11;;;;;;;4.07;2.90;;;27.60;43.40;;;;;;5014401;28;20809;-70
2021/07/03 12:02:39;;;;;;;5.07;3.60;;;27.70;43.20;;;;;;5014514;28;20565;-70
2021/07/03 12:05:07;;;;;;;5.97;3.40;;;27.70;42.10;;;;;;5014434;28;21009;-70
2021/07/03 12:07:36;;;;;;;6.30;3.93;;;27.70;42.50;;;;;;5012076;28;20847;-70
2021/07/03 12:10:05;;;;;;;4.87;4.17;;;27.80;42.80;;;;;;5013713;28;21002;-70
2021/07/03 12:12:37;;;;;;;3.90;3.20;;;27.80;42.10;;;;;;5012160;28;20866;-70
2021/07/03 12:15:10;;;;;;;3.73;3.30;;;27.80;41.30;;;;;;5013551;28;20536;-70
2021/07/03 12:17:47;;;;;;;6.57;4.40;;;27.70;43.80;;;;;;5013871;28;21020;-70
2021/07/03 12:20:14;;;;;;;5.73;3.90;;;27.70;42.90;;;;;;5011807;28;20442;-71
2021/07/03 12:22:41;;;;;;;4.50;3.60;;;27.60;42.10;;;;;;5012259;28;20493;-70
2021/07/03 12:25:13;;;;;;;5.00;3.90;;;27.60;41.20;;;;;;5016188;28;20475;-69
2021/07/03 12:27:40;;;;;;;5.70;4.07;;;27.50;41.80;;;;;;5014756;28;20521;-70
2021/07/03 12:30:10;;;;;;;4.30;3.27;;;27.50;40.70;;;;;;5011442;28;20526;-71
2021/07/03 12:32:37;;;;;;;6.10;4.53;;;27.40;40.80;;;;;;5013383;28;20442;-70
2021/07/03 12:35:12;;;;;;;5.47;4.30;;;27.40;41.00;;;;;;5009221;28;21032;-72
2021/07/03 12:37:39;;;;;;;4.30;3.27;;;27.40;40.80;;;;;;4998681;28;20548;-72
2021/07/03 12:40:14;;;;;;;4.33;3.73;;;27.50;42.30;;;;;;4843374;28;21001;-72
2021/07/03 12:42:41;;;;;;;3.97;3.33;;;27.60;43.10;;;;;;4998285;28;20496;-73
2021/07/03 12:45:11;;;;;;;7.10;3.63;;;27.70;44.90;;;;;;5016475;28;20549;-71
2021/07/03 12:47:39;;;;;;;4.50;3.77;;;27.90;43.90;;;;;;5006620;28;20861;-72
2021/07/03 12:50:09;;;;;;;3.97;3.57;;;28.10;44.20;;;;;;4992266;28;20470;-72
2021/07/03 12:52:42;;;;;;;4.20;3.60;;;28.30;43.90;;;;;;4996920;28;20444;-71